createdAt,value
2023-01-19T00:00:10.694Z,93.41
2023-01-19T00:01:11.923Z,93.30
2023-01-19T00:02:10.708Z,93.51
2023-01-19T00:03:10.650Z,94.04
2023-01-19T00:04:10.639Z,94.25
2023-01-19T00:05:10.605Z,94.71
2023-01-19T00:06:10.659Z,94.46
2023-01-19T00:07:10.615Z,94.82
2023-01-19T00:08:10.562Z,95.34
2023-01-19T00:09:10.558Z,96.08
2023-01-19T00:10:10.827Z,95.76
2023-01-19T00:11:10.575Z,96.19
2023-01-19T00:12:10.585Z,96.12
2023-01-19T00:13:10.545Z,95.76
2023-01-19T00:14:10.542Z,95.45
2023-01-19T00:15:10.499Z,95.70
2023-01-19T00:16:10.592Z,95.60
2023-01-19T00:17:11.479Z,96.39
2023-01-19T00:18:11.124Z,95.91
2023-01-19T00:19:11.474Z,96.23
2023-01-19T00:20:10.471Z,96.02
2023-01-19T00:21:10.458Z,96.44
2023-01-19T00:22:10.459Z,97.28
2023-01-19T00:23:10.420Z,97.28
2023-01-19T00:24:10.404Z,97.22
2023-01-19T00:25:10.424Z,97.11
2023-01-19T00:26:10.382Z,96.75
2023-01-19T00:27:10.439Z,96.97
2023-01-19T00:28:10.470Z,97.39
2023-01-19T00:29:11.457Z,97.07
2023-01-19T00:30:10.376Z,97.11
2023-01-19T00:31:10.390Z,97.17
2023-01-19T00:32:10.355Z,97.33
2023-01-19T00:33:10.352Z,97.11
2023-01-19T00:34:10.521Z,96.75
2023-01-19T00:35:10.298Z,96.86
2023-01-19T00:36:10.273Z,96.75
2023-01-19T00:37:10.303Z,96.86
2023-01-19T00:38:10.275Z,96.44
2023-01-19T00:39:10.250Z,96.23
2023-01-19T00:40:10.255Z,96.12
2023-01-19T00:41:10.225Z,95.70
2023-01-19T00:42:10.279Z,96.27
2023-01-19T00:43:10.227Z,96.06
2023-01-19T00:44:10.218Z,96.02
2023-01-19T00:45:10.179Z,96.69
2023-01-19T00:46:10.221Z,96.12
2023-01-19T00:47:10.156Z,95.91
2023-01-19T00:48:10.163Z,96.12
2023-01-19T00:49:10.174Z,95.85
2023-01-19T00:50:10.232Z,96.06
2023-01-19T00:51:10.107Z,95.53
2023-01-19T00:52:10.136Z,96.86
2023-01-19T00:53:10.089Z,96.97
2023-01-19T00:54:10.138Z,96.86
2023-01-19T00:55:10.078Z,96.97
2023-01-19T00:56:10.078Z,96.19
2023-01-19T00:57:10.040Z,95.97
2023-01-19T00:58:10.045Z,96.23
2023-01-19T00:59:10.036Z,96.23
2023-01-19T01:00:10.068Z,96.08
2023-01-19T01:01:10.077Z,95.97
2023-01-19T01:02:10.171Z,96.08
2023-01-19T01:03:10.065Z,96.19
2023-01-19T01:04:10.130Z,96.29
2023-01-19T01:05:09.967Z,95.97
2023-01-19T01:06:10.236Z,96.19
2023-01-19T01:07:10.193Z,96.45
2023-01-19T01:08:09.933Z,96.45
2023-01-19T01:09:09.926Z,96.56
2023-01-19T01:10:09.924Z,96.35
2023-01-19T01:11:10.896Z,96.25
2023-01-19T01:12:09.874Z,96.88
2023-01-19T01:13:21.070Z,96.35
2023-01-19T01:14:09.952Z,96.67
2023-01-19T01:15:09.885Z,96.77
2023-01-19T01:16:09.857Z,96.10
2023-01-19T01:17:09.856Z,96.03
2023-01-19T01:18:09.812Z,95.89
2023-01-19T01:19:09.792Z,95.89
2023-01-19T01:20:10.864Z,95.89
2023-01-19T01:21:09.783Z,96.10
2023-01-19T01:22:09.769Z,96.56
2023-01-19T01:23:09.782Z,96.35
2023-01-19T01:24:09.812Z,96.98
2023-01-19T01:25:09.725Z,97.61
2023-01-19T01:26:09.752Z,97.09
2023-01-19T01:27:09.689Z,97.19
2023-01-19T01:28:10.700Z,97.09
2023-01-19T01:29:09.690Z,97.34
2023-01-19T01:30:09.695Z,97.19
2023-01-19T01:31:09.732Z,96.88
2023-01-19T01:32:09.636Z,97.19
2023-01-19T01:33:09.634Z,96.56
2023-01-19T01:34:09.656Z,97.13
2023-01-19T01:35:09.600Z,97.03
2023-01-19T01:36:09.639Z,96.92
2023-01-19T01:37:09.599Z,96.39
2023-01-19T01:38:09.589Z,96.50
2023-01-19T01:39:09.580Z,97.24
2023-01-19T01:40:09.555Z,97.03
2023-01-19T01:41:09.546Z,97.45
2023-01-19T01:42:09.575Z,97.76
2023-01-19T01:43:09.521Z,97.97
2023-01-19T01:44:09.537Z,97.87
2023-01-19T01:45:09.505Z,97.87
2023-01-19T01:46:09.567Z,98.29
2023-01-19T01:47:09.553Z,98.08
2023-01-19T01:48:09.491Z,98.08
2023-01-19T01:49:09.468Z,98.50
2023-01-19T01:50:09.467Z,98.60
2023-01-19T01:51:09.460Z,98.29
2023-01-19T01:52:09.435Z,98.50
2023-01-19T01:53:09.697Z,99.02
2023-01-19T01:54:09.404Z,99.49
2023-01-19T01:55:09.407Z,99.49
2023-01-19T01:56:09.422Z,98.82
2023-01-19T01:57:09.402Z,99.66
2023-01-19T01:58:09.384Z,98.92
2023-01-19T01:59:09.381Z,99.24
2023-01-19T02:00:09.327Z,98.82
2023-01-19T02:01:09.420Z,98.71
2023-01-19T02:02:09.344Z,98.66
2023-01-19T02:03:09.379Z,99.02
2023-01-19T02:04:09.303Z,99.02
2023-01-19T02:05:09.325Z,98.88
2023-01-19T02:06:09.287Z,98.66
2023-01-19T02:07:09.271Z,98.35
2023-01-19T02:08:09.294Z,98.08
2023-01-19T02:09:09.262Z,97.93
2023-01-19T02:10:09.264Z,98.03
2023-01-19T02:11:09.255Z,97.61
2023-01-19T02:12:09.235Z,97.09
2023-01-19T02:13:09.213Z,97.61
2023-01-19T02:14:09.212Z,97.19
2023-01-19T02:15:09.185Z,97.87
2023-01-19T02:16:09.165Z,97.76
2023-01-19T02:17:09.152Z,97.39
2023-01-19T02:18:09.160Z,97.97
2023-01-19T02:19:09.514Z,97.51
2023-01-19T02:20:09.111Z,97.93
2023-01-19T02:21:09.154Z,97.24
2023-01-19T02:22:09.135Z,97.76
2023-01-19T02:23:09.093Z,97.13
2023-01-19T02:24:09.149Z,97.45
2023-01-19T02:25:09.085Z,97.45
2023-01-19T02:26:09.097Z,97.76
2023-01-19T02:27:09.068Z,98.02
2023-01-19T02:28:09.355Z,97.66
2023-01-19T02:29:09.027Z,98.08
2023-01-19T02:30:09.034Z,98.65
2023-01-19T02:31:09.016Z,98.44
2023-01-19T02:32:09.012Z,98.29
2023-01-19T02:33:08.998Z,98.50
2023-01-19T02:34:09.953Z,98.82
2023-01-19T02:35:08.975Z,98.71
2023-01-19T02:36:08.961Z,99.28
2023-01-19T02:37:08.952Z,98.44
2023-01-19T02:38:08.914Z,99.02
2023-01-19T02:39:08.955Z,99.66
2023-01-19T02:40:08.942Z,98.71
2023-01-19T02:41:08.892Z,99.76
2023-01-19T02:42:08.877Z,98.82
2023-01-19T02:43:08.875Z,99.76
2023-01-19T02:44:09.219Z,98.50
2023-01-19T02:45:08.892Z,98.82
2023-01-19T02:46:08.934Z,99.34
2023-01-19T02:47:08.819Z,99.44
2023-01-19T02:48:08.858Z,99.55
2023-01-19T02:49:08.796Z,99.51
2023-01-19T02:50:08.803Z,99.19
2023-01-19T02:51:08.835Z,99.44
2023-01-19T02:52:09.786Z,99.51
2023-01-19T02:53:09.506Z,99.66
2023-01-19T02:54:09.381Z,99.44
2023-01-19T02:55:08.754Z,98.92
2023-01-19T02:56:10.267Z,99.19
2023-01-19T02:57:08.707Z,99.44
2023-01-19T02:58:08.730Z,99.40
2023-01-19T02:59:10.220Z,99.55
2023-01-19T03:00:08.674Z,99.44
2023-01-19T03:01:08.842Z,99.24
2023-01-19T03:02:08.797Z,99.44
2023-01-19T03:03:08.731Z,99.55
2023-01-19T03:04:08.635Z,99.55
2023-01-19T03:05:08.634Z,99.61
2023-01-19T03:06:08.637Z,99.51
2023-01-19T03:07:08.623Z,99.30
2023-01-19T03:08:08.635Z,99.40
2023-01-19T03:09:08.597Z,99.40
2023-01-19T03:10:08.550Z,98.77
2023-01-19T03:11:08.586Z,98.35
2023-01-19T03:12:08.560Z,98.30
2023-01-19T03:13:08.561Z,98.03
2023-01-19T03:14:09.194Z,98.30
2023-01-19T03:15:08.515Z,98.30
2023-01-19T03:16:08.599Z,98.10
2023-01-19T03:17:08.502Z,98.20
2023-01-19T03:18:08.514Z,98.30
2023-01-19T03:19:08.469Z,98.30
2023-01-19T03:20:08.457Z,98.30
2023-01-19T03:21:08.472Z,98.62
2023-01-19T03:22:08.445Z,97.82
2023-01-19T03:23:09.021Z,97.78
2023-01-19T03:24:08.451Z,98.20
2023-01-19T03:25:08.411Z,97.78
2023-01-19T03:26:08.418Z,97.67
2023-01-19T03:27:08.424Z,98.24
2023-01-19T03:28:08.366Z,97.99
2023-01-19T03:29:08.349Z,97.78
2023-01-19T03:30:08.374Z,97.57
2023-01-19T03:31:08.471Z,97.82
2023-01-19T03:32:08.350Z,97.67
2023-01-19T03:33:08.296Z,97.78
2023-01-19T03:34:08.322Z,98.10
2023-01-19T03:35:08.279Z,97.78
2023-01-19T03:36:08.419Z,97.67
2023-01-19T03:37:08.278Z,98.10
2023-01-19T03:38:08.243Z,98.20
2023-01-19T03:39:08.279Z,98.10
2023-01-19T03:40:08.237Z,97.99
2023-01-19T03:41:08.259Z,98.10
2023-01-19T03:42:09.243Z,98.20
2023-01-19T03:43:08.198Z,97.47
2023-01-19T03:44:08.202Z,98.20
2023-01-19T03:45:08.219Z,98.10
2023-01-19T03:46:08.209Z,97.47
2023-01-19T03:47:09.167Z,97.67
2023-01-19T03:48:08.144Z,97.47
2023-01-19T03:49:08.123Z,97.88
2023-01-19T03:50:08.144Z,97.78
2023-01-19T03:51:08.131Z,97.57
2023-01-19T03:52:08.130Z,97.36
2023-01-19T03:53:08.102Z,98.10
2023-01-19T03:54:08.074Z,97.88
2023-01-19T03:55:08.062Z,98.03
2023-01-19T03:56:08.053Z,97.72
2023-01-19T03:57:08.079Z,98.10
2023-01-19T03:58:08.109Z,97.61
2023-01-19T03:59:08.007Z,97.30
2023-01-19T04:00:08.071Z,97.45
2023-01-19T04:01:08.062Z,97.45
2023-01-19T04:02:08.039Z,97.72
2023-01-19T04:03:08.037Z,97.87
2023-01-19T04:04:07.968Z,97.76
2023-01-19T04:05:07.943Z,98.14
2023-01-19T04:06:08.263Z,98.29
2023-01-19T04:07:07.935Z,98.14
2023-01-19T04:08:08.717Z,98.18
2023-01-19T04:09:07.947Z,98.03
2023-01-19T04:10:07.940Z,97.82
2023-01-19T04:11:07.883Z,98.24
2023-01-19T04:12:07.880Z,98.56
2023-01-19T04:13:07.891Z,98.24
2023-01-19T04:14:07.876Z,98.24
2023-01-19T04:15:07.872Z,97.82
2023-01-19T04:16:07.878Z,98.03
2023-01-19T04:17:07.837Z,97.72
2023-01-19T04:18:07.807Z,97.61
2023-01-19T04:19:07.859Z,97.93
2023-01-19T04:20:07.797Z,97.82
2023-01-19T04:21:07.776Z,98.46
2023-01-19T04:22:07.766Z,97.82
2023-01-19T04:23:07.755Z,97.72
2023-01-19T04:24:07.767Z,97.72
2023-01-19T04:25:07.725Z,98.10
2023-01-19T04:26:07.712Z,97.61
2023-01-19T04:27:07.700Z,97.41
2023-01-19T04:28:07.690Z,97.51
2023-01-19T04:29:07.694Z,97.93
2023-01-19T04:30:07.712Z,97.72
2023-01-19T04:31:07.724Z,98.46
2023-01-19T04:32:07.658Z,98.35
2023-01-19T04:33:07.631Z,97.82
2023-01-19T04:34:07.670Z,97.82
2023-01-19T04:35:07.678Z,97.82
2023-01-19T04:36:07.623Z,97.87
2023-01-19T04:37:07.603Z,97.87
2023-01-19T04:38:07.568Z,98.08
2023-01-19T04:39:07.595Z,97.97
2023-01-19T04:40:07.572Z,97.87
2023-01-19T04:41:07.608Z,98.29
2023-01-19T04:42:07.559Z,98.24
2023-01-19T04:43:07.523Z,98.24
2023-01-19T04:44:07.517Z,98.56
2023-01-19T04:45:07.519Z,97.72
2023-01-19T04:46:07.597Z,98.14
2023-01-19T04:47:07.488Z,98.14
2023-01-19T04:48:07.503Z,97.82
2023-01-19T04:49:07.474Z,97.93
2023-01-19T04:50:07.448Z,97.67
2023-01-19T04:51:07.442Z,97.78
2023-01-19T04:52:07.478Z,97.93
2023-01-19T04:53:07.415Z,97.78
2023-01-19T04:54:07.421Z,97.78
2023-01-19T04:55:07.418Z,97.78
2023-01-19T04:56:07.411Z,98.10
2023-01-19T04:57:07.438Z,98.03
2023-01-19T04:58:07.379Z,98.03
2023-01-19T04:59:07.391Z,98.35
2023-01-19T05:00:07.352Z,98.66
2023-01-19T05:01:07.353Z,98.77
2023-01-19T05:02:07.346Z,98.98
2023-01-19T05:03:07.451Z,99.51
2023-01-19T05:04:07.299Z,99.40
2023-01-19T05:05:07.306Z,99.40
2023-01-19T05:06:07.313Z,99.98
2023-01-19T05:07:07.268Z,99.72
2023-01-19T05:08:07.276Z,99.99
2023-01-19T05:09:07.249Z,99.76
2023-01-19T05:10:07.233Z,99.66
2023-01-19T05:11:07.209Z,99.82
2023-01-19T05:12:08.232Z,99.93
2023-01-19T05:13:07.309Z,99.87
2023-01-19T05:14:07.220Z,99.61
2023-01-19T05:15:07.188Z,99.61
2023-01-19T05:16:07.225Z,99.82
2023-01-19T05:17:07.152Z,99.82
2023-01-19T05:18:07.156Z,99.61
2023-01-19T05:19:07.141Z,99.82
2023-01-19T05:20:08.134Z,99.61
2023-01-19T05:21:07.106Z,99.57
2023-01-19T05:22:07.144Z,99.82
2023-01-19T05:23:07.090Z,99.67
2023-01-19T05:24:07.186Z,99.78
2023-01-19T05:25:07.074Z,99.78
2023-01-19T05:26:08.874Z,99.88
2023-01-19T05:27:07.061Z,99.57
2023-01-19T05:28:07.038Z,99.46
2023-01-19T05:29:07.063Z,99.78
2023-01-19T05:30:07.010Z,99.46
2023-01-19T05:31:07.152Z,99.36
2023-01-19T05:32:07.072Z,99.99
2023-01-19T05:33:06.985Z,99.57
2023-01-19T05:34:07.032Z,99.67
2023-01-19T05:35:06.976Z,99.99
2023-01-19T05:36:06.936Z,99.78
2023-01-19T05:37:06.916Z,99.46
2023-01-19T05:38:06.930Z,99.67
2023-01-19T05:39:06.899Z,99.73
2023-01-19T05:40:06.954Z,99.57
2023-01-19T05:41:06.895Z,99.99
2023-01-19T05:42:06.876Z,99.88
2023-01-19T05:43:06.882Z,99.57
2023-01-19T05:44:06.892Z,99.88
2023-01-19T05:45:06.898Z,99.57
2023-01-19T05:46:06.958Z,99.78
2023-01-19T05:47:06.820Z,99.36
2023-01-19T05:48:08.224Z,99.25
2023-01-19T05:49:06.813Z,99.36
2023-01-19T05:50:06.790Z,99.36
2023-01-19T05:51:06.808Z,99.46
2023-01-19T05:52:06.780Z,99.36
2023-01-19T05:53:06.755Z,99.25
2023-01-19T05:54:06.746Z,99.40
2023-01-19T05:55:06.762Z,99.25
2023-01-19T05:56:06.771Z,99.15
2023-01-19T05:57:06.754Z,99.25
2023-01-19T05:58:06.715Z,99.46
2023-01-19T05:59:06.672Z,99.46
2023-01-19T06:00:06.681Z,98.62
2023-01-19T06:01:06.781Z,99.46
2023-01-19T06:02:06.802Z,98.94
2023-01-19T06:03:06.726Z,99.36
2023-01-19T06:04:06.673Z,99.57
2023-01-19T06:05:06.615Z,99.15
2023-01-19T06:06:06.619Z,98.88
2023-01-19T06:07:06.672Z,99.61
2023-01-19T06:08:06.994Z,99.72
2023-01-19T06:09:06.581Z,99.19
2023-01-19T06:10:06.576Z,99.82
2023-01-19T06:11:06.540Z,99.61
2023-01-19T06:12:06.685Z,99.72
2023-01-19T06:13:06.561Z,99.61
2023-01-19T06:14:06.560Z,99.99
2023-01-19T06:15:06.895Z,99.99
2023-01-19T06:16:06.593Z,99.99
2023-01-19T06:17:07.136Z,99.99
2023-01-19T06:18:06.528Z,99.99
2023-01-19T06:19:06.495Z,99.99
2023-01-19T06:20:06.465Z,99.99
2023-01-19T06:21:06.456Z,99.99
2023-01-19T06:22:06.449Z,99.99
2023-01-19T06:23:06.463Z,99.99
2023-01-19T06:24:06.420Z,99.99
2023-01-19T06:25:06.397Z,99.99
2023-01-19T06:26:06.416Z,99.99
2023-01-19T06:27:06.443Z,99.99
2023-01-19T06:28:06.387Z,99.99
2023-01-19T06:29:06.392Z,99.99
2023-01-19T06:30:06.332Z,99.99
2023-01-19T06:31:06.398Z,99.99
2023-01-19T06:32:06.386Z,99.99
2023-01-19T06:33:06.315Z,99.99
2023-01-19T06:34:06.297Z,99.99
2023-01-19T06:35:06.331Z,99.99
2023-01-19T06:36:06.274Z,99.99
2023-01-19T06:37:06.309Z,99.99
2023-01-19T06:38:06.309Z,99.99
2023-01-19T06:39:06.241Z,99.99
2023-01-19T06:40:06.235Z,99.99
2023-01-19T06:41:06.246Z,99.99
2023-01-19T06:42:06.240Z,99.99
2023-01-19T06:43:06.221Z,99.99
2023-01-19T06:44:06.221Z,99.99
2023-01-19T06:45:06.195Z,99.99
2023-01-19T06:46:06.235Z,99.99
2023-01-19T06:47:15.010Z,99.99
2023-01-19T06:48:07.198Z,99.99
2023-01-19T06:49:06.161Z,99.99
2023-01-19T06:50:06.134Z,99.99
2023-01-19T06:51:06.112Z,99.99
2023-01-19T06:52:06.126Z,99.99
2023-01-19T06:53:06.118Z,99.99
2023-01-19T06:54:06.093Z,99.99
2023-01-19T06:55:06.102Z,99.99
2023-01-19T06:56:06.071Z,99.99
2023-01-19T06:57:06.049Z,99.99
2023-01-19T06:58:06.095Z,99.99
2023-01-19T06:59:06.034Z,99.99
2023-01-19T07:00:06.029Z,99.99
2023-01-19T07:01:06.129Z,99.99
2023-01-19T07:02:06.068Z,99.99
2023-01-19T07:03:06.784Z,99.99
2023-01-19T07:04:06.011Z,99.99
2023-01-19T07:05:05.964Z,99.99
2023-01-19T07:06:05.967Z,99.99
2023-01-19T07:07:05.942Z,99.99
2023-01-19T07:08:05.935Z,99.99
2023-01-19T07:09:05.978Z,99.99
2023-01-19T07:10:05.929Z,99.99
2023-01-19T07:11:24.857Z,99.99
2023-01-19T07:12:07.892Z,99.99
2023-01-19T07:13:05.879Z,99.99
2023-01-19T07:14:05.948Z,99.99
2023-01-19T07:15:05.884Z,99.99
2023-01-19T07:16:07.339Z,99.99
2023-01-19T07:17:05.865Z,99.99
2023-01-19T07:18:05.840Z,99.99
2023-01-19T07:19:05.830Z,99.99
2023-01-19T07:20:05.845Z,99.99
2023-01-19T07:21:05.832Z,99.99
2023-01-19T07:22:06.283Z,99.99
2023-01-19T07:23:05.797Z,99.99
2023-01-19T07:24:05.767Z,99.99
2023-01-19T07:25:05.840Z,99.99
2023-01-19T07:26:05.763Z,99.99
2023-01-19T07:27:05.734Z,99.99
2023-01-19T07:28:05.744Z,99.99
2023-01-19T07:29:05.719Z,99.99
2023-01-19T07:30:05.791Z,99.99
2023-01-19T07:31:05.779Z,99.99
2023-01-19T07:32:05.689Z,99.99
2023-01-19T07:33:05.666Z,99.99
2023-01-19T07:34:05.702Z,99.99
2023-01-19T07:35:05.637Z,99.99
2023-01-19T07:36:05.703Z,99.99
2023-01-19T07:37:05.627Z,99.99
2023-01-19T07:38:05.709Z,99.99
2023-01-19T07:39:05.671Z,99.99
2023-01-19T07:40:05.585Z,99.99
2023-01-19T07:41:05.668Z,99.99
2023-01-19T07:42:05.568Z,99.99
2023-01-19T07:43:05.555Z,99.99
2023-01-19T07:44:05.608Z,99.99
2023-01-19T07:45:05.547Z,99.99
2023-01-19T07:46:05.584Z,99.99
2023-01-19T07:47:05.539Z,99.99
2023-01-19T07:48:05.499Z,99.99
2023-01-19T07:49:05.484Z,99.99
2023-01-19T07:50:05.530Z,99.99
2023-01-19T07:51:05.573Z,99.99
2023-01-19T07:52:05.535Z,99.99
2023-01-19T07:53:05.470Z,99.90
2023-01-19T07:54:05.475Z,99.79
2023-01-19T07:55:05.447Z,99.48
2023-01-19T07:56:05.406Z,99.58
2023-01-19T07:57:05.459Z,99.48
2023-01-19T07:58:05.401Z,99.79
2023-01-19T07:59:05.425Z,99.37
2023-01-19T08:00:05.370Z,99.64
2023-01-19T08:01:05.424Z,99.64
2023-01-19T08:02:05.519Z,99.43
2023-01-19T08:03:05.543Z,99.22
2023-01-19T08:04:05.360Z,99.33
2023-01-19T08:05:05.308Z,99.22
2023-01-19T08:06:05.339Z,99.43
2023-01-19T08:07:05.332Z,99.11
2023-01-19T08:08:05.299Z,99.43
2023-01-19T08:09:05.270Z,99.43
2023-01-19T08:10:05.242Z,99.43
2023-01-19T08:11:05.245Z,99.99
2023-01-19T08:12:05.353Z,99.58
2023-01-19T08:13:05.225Z,99.99
2023-01-19T08:14:07.776Z,99.99
2023-01-19T08:15:06.410Z,99.99
2023-01-19T08:16:05.257Z,99.99
2023-01-19T08:17:05.187Z,99.99
2023-01-19T08:18:05.185Z,99.99
2023-01-19T08:19:05.185Z,99.96
2023-01-19T08:20:05.151Z,99.99
2023-01-19T08:21:05.124Z,99.96
2023-01-19T08:22:05.121Z,99.99
2023-01-19T08:23:05.231Z,99.99
2023-01-19T08:24:05.280Z,99.99
2023-01-19T08:25:05.098Z,99.85
2023-01-19T08:26:05.081Z,99.96
2023-01-19T08:27:05.114Z,99.99
2023-01-19T08:28:05.034Z,99.99
2023-01-19T08:29:05.060Z,99.28
2023-01-19T08:30:05.102Z,99.74
2023-01-19T08:31:18.492Z,99.64
2023-01-19T08:32:06.137Z,99.60
2023-01-19T08:33:05.056Z,99.54
2023-01-19T08:34:04.979Z,99.99
2023-01-19T08:35:05.013Z,99.64
2023-01-19T08:36:04.983Z,99.91
2023-01-19T08:37:04.933Z,99.80
2023-01-19T08:38:04.938Z,99.49
2023-01-19T08:39:04.919Z,99.49
2023-01-19T08:40:04.928Z,99.18
2023-01-19T08:41:04.922Z,99.28
2023-01-19T08:42:04.912Z,99.28
2023-01-19T08:43:04.876Z,99.38
2023-01-19T08:44:04.864Z,99.07
2023-01-19T08:45:04.876Z,99.18
2023-01-19T08:46:04.896Z,99.07
2023-01-19T08:47:04.864Z,99.18
2023-01-19T08:48:04.877Z,99.28
2023-01-19T08:49:04.829Z,99.18
2023-01-19T08:50:04.805Z,99.34
2023-01-19T08:51:04.841Z,98.92
2023-01-19T08:52:04.771Z,99.13
2023-01-19T08:53:04.796Z,99.13
2023-01-19T08:54:04.763Z,98.08
2023-01-19T08:55:04.730Z,98.08
2023-01-19T08:56:04.767Z,98.29
2023-01-19T08:57:04.787Z,98.67
2023-01-19T08:58:04.764Z,98.82
2023-01-19T08:59:09.843Z,99.34
2023-01-19T09:00:05.679Z,99.24
2023-01-19T09:01:04.696Z,99.13
2023-01-19T09:02:04.869Z,99.13
2023-01-19T09:03:05.226Z,98.50
2023-01-19T09:04:04.646Z,99.24
2023-01-19T09:05:04.675Z,99.24
2023-01-19T09:06:04.630Z,99.19
2023-01-19T09:08:04.631Z,99.03
2023-01-19T09:09:04.590Z,99.34
2023-01-19T09:10:04.625Z,99.87
2023-01-19T09:11:04.637Z,99.99
2023-01-19T09:12:04.559Z,99.99
2023-01-19T09:13:04.580Z,99.99
2023-01-19T09:14:04.571Z,99.99
2023-01-19T09:15:04.538Z,99.99
2023-01-19T09:16:05.637Z,99.99
2023-01-19T09:17:04.509Z,99.99
2023-01-19T09:18:04.531Z,99.99
2023-01-19T09:19:04.520Z,99.99
2023-01-19T09:20:04.513Z,99.99
2023-01-19T09:21:04.469Z,99.99
2023-01-19T09:22:04.447Z,99.99
2023-01-19T09:23:04.460Z,99.99
2023-01-19T09:24:04.493Z,99.99
2023-01-19T09:25:04.423Z,99.99
2023-01-19T09:26:04.421Z,99.99
2023-01-19T09:27:04.440Z,99.99
2023-01-19T09:28:04.387Z,99.99
2023-01-19T09:29:04.432Z,99.99
2023-01-19T09:30:04.378Z,99.99
2023-01-19T09:31:04.480Z,99.99
2023-01-19T09:32:04.336Z,99.99
2023-01-19T09:33:04.508Z,99.99
2023-01-19T09:34:04.329Z,99.99
2023-01-19T09:35:04.320Z,99.99
2023-01-19T09:36:04.312Z,99.99
2023-01-19T09:37:04.282Z,99.99
2023-01-19T09:38:04.351Z,99.99
2023-01-19T09:39:04.264Z,99.99
2023-01-19T09:40:04.327Z,99.99
2023-01-19T09:41:04.268Z,99.99
2023-01-19T09:42:04.233Z,99.99
2023-01-19T09:43:04.239Z,99.99
2023-01-19T09:44:04.207Z,99.99
2023-01-19T09:45:05.270Z,99.99
2023-01-19T09:46:04.273Z,99.99
2023-01-19T09:47:04.199Z,99.99
2023-01-19T09:48:04.170Z,99.99
2023-01-19T09:49:04.179Z,99.99
2023-01-19T09:50:04.166Z,99.99
2023-01-19T09:51:04.141Z,99.99
2023-01-19T09:52:04.134Z,99.99
2023-01-19T09:53:04.111Z,99.99
2023-01-19T09:54:04.130Z,99.99
2023-01-19T09:55:04.099Z,99.99
2023-01-19T09:56:04.104Z,99.99
2023-01-19T09:57:04.482Z,99.99
2023-01-19T09:58:04.294Z,99.99
2023-01-19T09:59:04.045Z,99.99
2023-01-19T10:00:04.041Z,99.99
2023-01-19T10:01:04.210Z,99.99
2023-01-19T10:02:03.994Z,99.99
2023-01-19T10:03:04.304Z,99.99
2023-01-19T10:04:03.983Z,99.99
2023-01-19T10:05:03.952Z,99.99
2023-01-19T10:06:04.357Z,99.99
2023-01-19T10:07:03.941Z,99.99
2023-01-19T10:08:03.989Z,99.99
2023-01-19T10:09:03.933Z,99.99
2023-01-19T10:10:03.927Z,99.99
2023-01-19T10:11:03.918Z,99.99
2023-01-19T10:12:03.953Z,99.99
2023-01-19T10:13:04.038Z,99.99
2023-01-19T10:14:03.877Z,99.99
2023-01-19T10:15:03.870Z,99.99
2023-01-19T10:16:03.889Z,99.99
2023-01-19T10:17:03.887Z,99.99
2023-01-19T10:18:03.981Z,99.99
2023-01-19T10:19:03.811Z,99.99
2023-01-19T10:20:03.793Z,99.99
2023-01-19T10:21:05.501Z,99.99
2023-01-19T10:22:04.824Z,99.99
2023-01-19T10:23:04.261Z,99.99
2023-01-19T10:24:05.772Z,99.99
2023-01-19T10:25:04.775Z,99.99
2023-01-19T10:26:03.771Z,99.99
2023-01-19T10:27:03.727Z,99.99
2023-01-19T10:28:03.793Z,99.99
2023-01-19T10:29:03.713Z,99.99
2023-01-19T10:30:03.682Z,99.99
2023-01-19T10:31:03.850Z,99.99
2023-01-19T10:32:03.886Z,99.99
2023-01-19T10:33:03.969Z,99.99
2023-01-19T10:34:03.648Z,99.99
2023-01-19T10:35:04.641Z,99.99
2023-01-19T10:36:03.610Z,99.99
2023-01-19T10:37:03.612Z,99.99
2023-01-19T10:38:03.637Z,99.99
2023-01-19T10:39:03.622Z,99.99
2023-01-19T10:40:03.615Z,99.99
2023-01-19T10:41:03.587Z,99.99
2023-01-19T10:42:03.655Z,99.99
2023-01-19T10:43:04.113Z,99.99
2023-01-19T10:44:03.599Z,99.99
2023-01-19T10:45:03.555Z,99.99
2023-01-19T10:46:03.653Z,99.99
2023-01-19T10:47:03.489Z,99.99
2023-01-19T10:48:03.534Z,99.99
2023-01-19T10:49:03.528Z,99.99
2023-01-19T10:50:04.522Z,99.99
2023-01-19T10:51:03.512Z,99.99
2023-01-19T10:52:04.175Z,99.99
2023-01-19T10:53:04.024Z,99.99
2023-01-19T10:54:03.536Z,99.99
2023-01-19T10:55:03.457Z,99.99
2023-01-19T10:56:03.420Z,99.99
2023-01-19T10:57:03.545Z,99.99
2023-01-19T10:58:03.449Z,99.99
2023-01-19T10:59:03.479Z,99.99
2023-01-19T11:00:03.386Z,99.99
2023-01-19T11:01:04.060Z,99.99
2023-01-19T11:02:03.541Z,99.99
2023-01-19T11:03:03.946Z,99.99
2023-01-19T11:04:03.356Z,99.99
2023-01-19T11:05:03.373Z,99.99
2023-01-19T11:06:03.311Z,99.99
2023-01-19T11:07:03.342Z,99.99
2023-01-19T11:08:03.298Z,99.99
2023-01-19T11:09:03.266Z,99.99
2023-01-19T11:10:03.298Z,99.99
2023-01-19T11:11:03.260Z,99.99
2023-01-19T11:12:03.231Z,99.99
2023-01-19T11:13:03.824Z,99.99
2023-01-19T11:14:03.251Z,99.99
2023-01-19T11:15:03.249Z,99.99
2023-01-19T11:16:04.239Z,99.99
2023-01-19T11:17:03.285Z,99.99
2023-01-19T11:18:03.333Z,99.99
2023-01-19T11:19:03.186Z,99.99
2023-01-19T11:20:03.147Z,99.99
2023-01-19T11:21:03.200Z,99.99
2023-01-19T11:22:03.125Z,99.99
2023-01-19T11:23:03.405Z,99.99
2023-01-19T11:24:03.138Z,99.99
2023-01-19T11:25:03.099Z,99.99
2023-01-19T11:26:03.118Z,99.99
2023-01-19T11:27:03.114Z,99.99
2023-01-19T11:28:03.076Z,99.99
2023-01-19T11:29:03.075Z,99.99
2023-01-19T11:30:03.040Z,99.99
2023-01-19T11:31:03.099Z,99.99
2023-01-19T11:32:03.146Z,99.99
2023-01-19T11:33:03.282Z,99.99
2023-01-19T11:34:02.998Z,99.99
2023-01-19T11:35:03.014Z,99.99
2023-01-19T11:36:02.977Z,99.99
2023-01-19T11:37:03.016Z,99.99
2023-01-19T11:38:02.951Z,99.99
2023-01-19T11:39:02.956Z,99.99
2023-01-19T11:40:02.952Z,99.99
2023-01-19T11:41:02.935Z,99.99
2023-01-19T11:42:02.929Z,99.99
2023-01-19T11:43:03.310Z,99.99
2023-01-19T11:44:02.920Z,99.99
2023-01-19T11:45:02.907Z,99.99
2023-01-19T11:46:02.943Z,99.99
2023-01-19T11:47:02.881Z,99.99
2023-01-19T11:48:03.360Z,99.99
2023-01-19T11:49:03.005Z,99.99
2023-01-19T11:50:02.829Z,99.99
2023-01-19T11:51:02.824Z,99.99
2023-01-19T11:52:02.817Z,99.99
2023-01-19T11:53:02.792Z,99.99
2023-01-19T11:54:02.812Z,99.99
2023-01-19T11:55:02.776Z,99.99
2023-01-19T11:56:02.791Z,99.99
2023-01-19T11:57:02.753Z,99.99
2023-01-19T11:58:03.192Z,99.99
2023-01-19T11:59:02.873Z,99.99
2023-01-19T12:00:02.730Z,99.99
2023-01-19T12:01:02.755Z,99.99
2023-01-19T12:02:02.772Z,99.99
2023-01-19T12:03:02.722Z,99.99
2023-01-19T12:04:02.681Z,99.99
2023-01-19T12:05:02.664Z,99.99
2023-01-19T12:06:02.683Z,99.99
2023-01-19T12:07:02.686Z,99.99
2023-01-19T12:08:05.447Z,99.99
2023-01-19T12:09:03.655Z,99.99
2023-01-19T12:10:02.620Z,99.99
2023-01-19T12:11:02.609Z,99.99
2023-01-19T12:12:02.601Z,99.99
2023-01-19T12:13:02.628Z,99.99
2023-01-19T12:14:02.588Z,99.99
2023-01-19T12:15:02.555Z,99.99
2023-01-19T12:16:02.534Z,99.99
2023-01-19T12:17:02.537Z,99.99
2023-01-19T12:18:02.905Z,99.99
2023-01-19T12:19:02.518Z,99.99
2023-01-19T12:20:02.492Z,99.99
2023-01-19T12:21:04.185Z,99.99
2023-01-19T12:22:03.466Z,99.99
2023-01-19T12:23:02.444Z,99.99
2023-01-19T12:24:02.540Z,99.99
2023-01-19T12:25:02.449Z,99.99
2023-01-19T12:26:02.450Z,99.99
2023-01-19T12:27:02.419Z,99.99
2023-01-19T12:28:02.410Z,99.99
2023-01-19T12:29:02.440Z,99.99
2023-01-19T12:30:02.423Z,99.99
2023-01-19T12:31:02.521Z,99.99
2023-01-19T12:32:02.374Z,99.99
2023-01-19T12:33:02.366Z,99.99
2023-01-19T12:34:02.398Z,99.99
2023-01-19T12:35:02.338Z,99.99
2023-01-19T12:36:02.308Z,99.99
2023-01-19T12:37:02.307Z,99.99
2023-01-19T12:38:02.288Z,99.99
2023-01-19T12:39:02.286Z,99.99
2023-01-19T12:40:02.322Z,99.99
2023-01-19T12:41:02.267Z,99.99
2023-01-19T12:42:02.274Z,99.99
2023-01-19T12:43:02.230Z,99.99
2023-01-19T12:44:02.372Z,99.99
2023-01-19T12:45:02.251Z,99.99
2023-01-19T12:46:02.202Z,99.99
2023-01-19T12:47:02.199Z,99.99
2023-01-19T12:48:02.207Z,99.99
2023-01-19T12:49:02.187Z,99.99
2023-01-19T12:50:02.145Z,99.99
2023-01-19T12:51:02.305Z,99.99
2023-01-19T12:52:02.139Z,99.99
2023-01-19T12:53:02.134Z,99.99